createdAt,value
2022-08-10T00:01:51.593Z,4.80
2022-08-10T00:04:22.525Z,6.60
2022-08-10T00:06:52.320Z,4.77
2022-08-10T00:09:20.678Z,4.17
2022-08-10T00:11:49.211Z,2.90
2022-08-10T00:14:17.763Z,3.40
2022-08-10T00:16:46.081Z,3.57
2022-08-10T00:19:16.676Z,6.83
2022-08-10T00:21:47.482Z,6.37
2022-08-10T00:24:16.230Z,3.97
2022-08-10T00:27:52.659Z,6.27
2022-08-10T00:29:33.271Z,8.73
2022-08-10T00:32:01.588Z,5.90
2022-08-10T00:34:30.065Z,6.73
2022-08-10T00:37:00.178Z,4.80
2022-08-10T00:39:29.187Z,5.13
2022-08-10T00:42:01.863Z,3.13
2022-08-10T00:44:36.344Z,8.53
2022-08-10T00:47:04.664Z,7.40
2022-08-10T00:49:33.184Z,6.83
2022-08-10T00:52:03.672Z,4.00
2022-08-10T00:54:32.726Z,3.13
2022-08-10T00:57:17.480Z,8.87
2022-08-10T00:59:58.034Z,8.13
2022-08-10T01:02:28.634Z,5.43
2022-08-10T01:05:00.757Z,5.30
2022-08-10T01:07:35.675Z,7.20
2022-08-10T01:10:10.032Z,4.60
2022-08-10T01:12:41.789Z,5.17
2022-08-10T01:15:14.850Z,5.90
2022-08-10T01:17:49.730Z,3.87
2022-08-10T01:20:30.099Z,3.03
2022-08-10T01:23:26.573Z,5.00
2022-08-10T01:26:12.503Z,4.63
2022-08-10T01:28:57.014Z,7.83
2022-08-10T01:31:29.871Z,7.13
2022-08-10T01:34:02.656Z,5.33
2022-08-10T01:36:34.833Z,3.77
2022-08-10T01:39:04.842Z,4.00
2022-08-10T01:41:45.615Z,8.27
2022-08-10T01:44:16.261Z,5.17
2022-08-10T01:46:56.988Z,4.97
2022-08-10T01:49:25.455Z,4.10
2022-08-10T01:51:55.145Z,2.97
2022-08-10T01:54:25.009Z,11.50
2022-08-10T01:56:56.007Z,5.90
2022-08-10T01:59:25.810Z,2.63
2022-08-10T02:01:57.556Z,6.43
2022-08-10T02:04:27.339Z,4.07
2022-08-10T02:06:58.910Z,8.73
2022-08-10T02:09:28.621Z,3.40
2022-08-10T02:12:07.030Z,7.30
2022-08-10T02:14:44.910Z,3.90
2022-08-10T02:17:57.637Z,4.60
2022-08-10T02:20:07.812Z,4.77
2022-08-10T02:22:39.108Z,5.17
2022-08-10T02:25:08.796Z,7.90
2022-08-10T02:27:37.695Z,3.50
2022-08-10T02:30:07.933Z,7.73
2022-08-10T02:32:38.773Z,9.87
2022-08-10T02:35:20.127Z,9.73
2022-08-10T02:37:51.553Z,7.47
2022-08-10T02:45:01.045Z,8.67
2022-08-10T02:45:23.507Z,6.90
2022-08-10T02:46:03.071Z,7.30
2022-08-10T02:48:36.661Z,6.43
2022-08-10T02:51:08.848Z,9.67
2022-08-10T02:53:55.188Z,5.97
2022-08-10T02:56:27.353Z,7.40
2022-08-10T02:58:58.609Z,3.93
2022-08-10T03:01:32.892Z,7.67
2022-08-10T03:04:06.027Z,6.70
2022-08-10T03:06:36.930Z,7.23
2022-08-10T03:09:08.200Z,7.00
2022-08-10T03:12:35.560Z,9.77
2022-08-10T03:14:26.978Z,7.60
2022-08-10T03:16:56.289Z,7.77
2022-08-10T03:20:34.536Z,9.47
2022-08-10T03:22:17.385Z,4.73
2022-08-10T03:24:46.280Z,8.83
2022-08-10T03:27:14.962Z,5.53
2022-08-10T03:30:28.650Z,8.10
2022-08-10T03:32:32.799Z,6.67
2022-08-10T03:35:03.052Z,7.37
2022-08-10T03:37:31.600Z,6.63
2022-08-10T03:40:00.186Z,5.37
2022-08-10T03:42:29.441Z,8.77
2022-08-10T03:44:58.368Z,8.27
2022-08-10T03:47:27.218Z,6.43
2022-08-10T03:49:57.030Z,10.57
2022-08-10T03:52:27.228Z,10.03
2022-08-10T03:54:56.189Z,11.10
2022-08-10T03:57:26.406Z,5.70
2022-08-10T03:59:54.924Z,8.27
2022-08-10T04:02:51.974Z,13.40
2022-08-10T04:05:11.879Z,7.67
2022-08-10T04:07:41.586Z,9.10
2022-08-10T04:10:12.965Z,7.37
2022-08-10T04:12:42.331Z,6.87
2022-08-10T04:15:11.234Z,8.57
2022-08-10T04:18:01.257Z,5.63
2022-08-10T04:20:34.921Z,9.57
2022-08-10T04:23:06.926Z,11.93
2022-08-10T04:25:35.782Z,7.13
2022-08-10T04:28:04.397Z,8.23
2022-08-10T04:30:33.677Z,8.43
2022-08-10T04:33:04.148Z,7.67
2022-08-10T04:35:33.853Z,4.40
2022-08-10T04:38:03.223Z,10.83
2022-08-10T04:40:33.206Z,10.90
2022-08-10T04:43:07.334Z,10.07
2022-08-10T04:45:47.237Z,9.63
2022-08-10T04:48:41.229Z,6.50
2022-08-10T04:51:11.090Z,12.67
2022-08-10T04:54:04.206Z,8.67
2022-08-10T04:56:36.380Z,9.93
2022-08-10T04:59:05.212Z,7.90
2022-08-10T05:02:09.866Z,9.43
2022-08-10T05:04:35.884Z,7.33
2022-08-10T05:07:06.055Z,5.63
2022-08-10T05:10:02.910Z,9.60
2022-08-10T05:12:24.626Z,8.20
2022-08-10T05:14:54.628Z,7.37
2022-08-10T05:17:23.430Z,7.80
2022-08-10T05:20:03.489Z,4.77
2022-08-10T05:22:34.895Z,10.43
2022-08-10T05:25:03.375Z,10.70
2022-08-10T05:27:33.632Z,8.63
2022-08-10T05:30:03.679Z,8.77
2022-08-10T05:32:32.514Z,6.67
2022-08-10T05:35:21.217Z,10.20
2022-08-10T05:38:13.460Z,10.07
2022-08-10T05:40:39.785Z,14.40
2022-08-10T05:43:09.467Z,8.03
2022-08-10T05:46:18.233Z,11.70
2022-08-10T05:48:57.046Z,9.43
2022-08-10T05:51:14.727Z,5.87
2022-08-10T05:54:01.398Z,11.80
2022-08-10T05:56:56.139Z,6.60
2022-08-10T06:00:11.074Z,7.23
2022-08-10T06:02:31.310Z,5.53
2022-08-10T06:05:05.682Z,7.57
2022-08-10T06:07:34.338Z,12.57
2022-08-10T06:10:02.850Z,7.20
2022-08-10T06:12:54.264Z,7.47
2022-08-10T06:15:45.634Z,6.90
2022-08-10T06:18:12.082Z,8.77
2022-08-10T06:20:40.673Z,6.77
2022-08-10T06:23:11.250Z,7.50
2022-08-10T06:26:12.214Z,12.13
2022-08-10T06:28:30.193Z,13.23
2022-08-10T06:31:01.098Z,10.27
2022-08-10T06:33:31.672Z,6.23
2022-08-10T06:36:01.066Z,6.73
2022-08-10T06:38:31.950Z,4.97
2022-08-10T06:41:01.989Z,6.00
2022-08-10T06:43:30.691Z,4.60
2022-08-10T06:46:07.369Z,5.43
2022-08-10T06:48:40.468Z,8.37
2022-08-10T06:51:10.266Z,6.33
2022-08-10T06:53:53.401Z,7.37
2022-08-10T06:56:36.239Z,7.83
2022-08-10T06:59:21.113Z,3.33
2022-08-10T07:01:54.887Z,4.27
2022-08-10T07:04:32.567Z,7.73
2022-08-10T07:07:02.888Z,8.43
2022-08-10T07:09:32.408Z,6.27
2022-08-10T07:12:07.903Z,10.43
2022-08-10T07:14:39.173Z,5.13
2022-08-10T07:17:15.387Z,6.20
2022-08-10T07:19:49.489Z,6.83
2022-08-10T07:23:08.600Z,5.07
2022-08-10T07:25:09.305Z,9.47
2022-08-10T07:28:00.676Z,4.77
2022-08-10T07:30:29.350Z,5.97
2022-08-10T07:33:00.218Z,8.17
2022-08-10T07:35:34.707Z,4.87
2022-08-10T07:38:06.372Z,9.33
2022-08-10T07:40:35.363Z,6.07
2022-08-10T07:43:03.989Z,7.27
2022-08-10T07:45:33.550Z,6.93
2022-08-10T07:48:07.766Z,7.37
2022-08-10T07:50:38.789Z,2.77
2022-08-10T07:53:09.005Z,4.13
2022-08-10T07:56:05.801Z,9.00
2022-08-10T07:58:29.219Z,5.33
2022-08-10T08:00:58.064Z,4.33
2022-08-10T08:03:29.106Z,6.70
2022-08-10T08:06:05.042Z,2.87
2022-08-10T08:08:35.103Z,5.03
2022-08-10T08:11:04.543Z,4.33
2022-08-10T08:13:33.507Z,3.57
2022-08-10T08:16:20.345Z,4.67
2022-08-10T08:24:09.883Z,4.23
2022-08-10T08:24:33.864Z,5.27
2022-08-10T08:27:03.752Z,6.03
2022-08-10T08:29:35.163Z,7.87
2022-08-10T08:32:04.473Z,5.83
2022-08-10T08:34:36.287Z,6.10
2022-08-10T08:37:05.299Z,4.57
2022-08-10T08:39:34.265Z,4.40
2022-08-10T08:42:09.320Z,6.93
2022-08-10T08:44:44.155Z,6.77
2022-08-10T08:48:02.967Z,3.70
2022-08-10T08:50:23.681Z,4.93
2022-08-10T08:52:58.937Z,6.20
2022-08-10T08:56:04.062Z,3.23
2022-08-10T08:58:42.347Z,4.23
2022-08-10T09:01:20.456Z,6.07
2022-08-10T09:04:01.814Z,6.63
2022-08-10T09:06:53.022Z,6.27
2022-08-10T09:09:34.638Z,3.70
2022-08-10T09:12:08.050Z,4.27
2022-08-10T09:14:39.187Z,6.13
2022-08-10T09:17:11.450Z,5.37
2022-08-10T09:19:43.387Z,9.37
2022-08-10T09:22:19.450Z,5.47
2022-08-10T09:24:51.834Z,5.20
2022-08-10T09:27:21.781Z,4.20
2022-08-10T09:29:55.690Z,3.97
2022-08-10T09:36:16.061Z,6.00
2022-08-10T09:36:19.621Z,5.37
2022-08-10T09:38:13.870Z,4.33
2022-08-10T09:41:00.941Z,3.03
2022-08-10T09:43:42.401Z,4.43
2022-08-10T09:46:16.704Z,3.87
2022-08-10T09:48:47.490Z,6.20
2022-08-10T09:51:44.173Z,3.43
2022-08-10T09:54:19.214Z,4.37
2022-08-10T09:56:50.319Z,3.33
2022-08-10T09:59:27.146Z,3.65
2022-08-10T10:02:20.627Z,5.27
2022-08-10T10:04:52.387Z,2.63
2022-08-10T10:07:24.767Z,4.20
2022-08-10T10:09:59.701Z,3.75
2022-08-10T10:12:32.186Z,3.28
2022-08-10T10:15:25.969Z,3.20
2022-08-10T10:18:15.254Z,3.70
2022-08-10T10:20:46.689Z,4.45
2022-08-10T10:23:18.848Z,3.78
2022-08-10T10:25:54.478Z,2.93
2022-08-10T10:29:06.821Z,2.58
2022-08-10T10:31:26.321Z,3.95
2022-08-10T10:33:58.914Z,4.63
2022-08-10T10:36:28.406Z,4.88
2022-08-10T10:38:57.315Z,4.30
2022-08-10T10:41:56.259Z,3.92
2022-08-10T10:44:28.787Z,4.28
2022-08-10T10:47:07.007Z,5.43
2022-08-10T10:49:43.743Z,6.70
2022-08-10T10:52:19.485Z,4.03
2022-08-10T10:54:52.253Z,3.33
2022-08-10T10:58:00.055Z,3.45
2022-08-10T11:00:23.424Z,3.53
2022-08-10T11:03:01.754Z,2.25
2022-08-10T11:05:34.339Z,3.40
2022-08-10T11:08:05.107Z,4.63
2022-08-10T11:10:44.937Z,2.97
2022-08-10T11:14:26.909Z,2.10
2022-08-10T11:16:15.105Z,1.75
2022-08-10T11:19:01.393Z,1.60
2022-08-10T11:21:36.629Z,1.80
2022-08-10T11:24:47.979Z,1.52
2022-08-10T11:27:01.194Z,3.25
2022-08-10T11:29:35.445Z,2.50
2022-08-10T11:32:05.335Z,2.35
2022-08-10T11:34:46.822Z,2.45
2022-08-10T11:37:20.301Z,3.30
2022-08-10T11:39:53.468Z,5.38
2022-08-10T11:42:35.709Z,2.05
2022-08-10T11:45:10.643Z,2.85
2022-08-10T11:47:41.061Z,4.95
2022-08-10T11:50:11.925Z,2.58
2022-08-10T11:52:42.850Z,1.88
2022-08-10T11:55:15.646Z,4.35
2022-08-10T11:57:53.453Z,1.67
2022-08-10T12:00:24.998Z,2.13
2022-08-10T12:02:59.815Z,2.70
2022-08-10T12:05:52.586Z,1.70
2022-08-10T12:10:07.324Z,2.92
2022-08-10T12:11:08.801Z,2.35
2022-08-10T12:13:39.466Z,1.50
2022-08-10T12:16:10.560Z,4.22
2022-08-10T12:18:46.177Z,2.85
2022-08-10T12:21:21.977Z,3.10
2022-08-10T12:24:03.157Z,3.08
2022-08-10T12:26:35.180Z,1.40
2022-08-10T12:29:10.403Z,2.25
2022-08-10T12:31:42.510Z,1.88
2022-08-10T12:34:19.929Z,3.33
2022-08-10T12:36:50.125Z,1.23
2022-08-10T12:39:20.337Z,2.20
2022-08-10T12:41:53.328Z,1.50
2022-08-10T12:44:42.273Z,1.85
2022-08-10T12:47:16.498Z,4.60
2022-08-10T12:50:29.561Z,2.63
2022-08-10T12:52:44.321Z,3.33
2022-08-10T12:55:13.474Z,3.08
2022-08-10T12:57:42.003Z,1.67
2022-08-10T13:00:17.599Z,1.20
2022-08-10T13:02:49.297Z,6.30
2022-08-10T13:05:18.112Z,4.38
2022-08-10T13:08:24.406Z,2.67
2022-08-10T13:10:43.918Z,3.42
2022-08-10T13:13:14.846Z,1.30
2022-08-10T13:15:50.653Z,2.63
2022-08-10T13:18:26.397Z,1.75
2022-08-10T13:20:56.621Z,3.28
2022-08-10T13:23:26.891Z,5.60
2022-08-10T13:25:56.854Z,1.88
2022-08-10T13:28:37.453Z,1.98
2022-08-10T13:31:11.468Z,1.20
2022-08-10T13:34:41.704Z,2.15
2022-08-10T13:36:37.249Z,1.65
2022-08-10T13:39:07.678Z,1.23
2022-08-10T13:41:39.292Z,1.60
2022-08-10T13:44:08.942Z,1.85
2022-08-10T13:46:40.205Z,1.40
2022-08-10T13:49:11.412Z,1.40
2022-08-10T13:51:53.641Z,1.42
2022-08-10T13:54:26.998Z,2.03
2022-08-10T13:56:55.835Z,3.95
2022-08-10T13:59:27.044Z,1.55
2022-08-10T14:02:16.159Z,1.00
2022-08-10T14:04:49.544Z,1.80
2022-08-10T14:07:18.851Z,1.00
2022-08-10T14:09:48.535Z,2.67
2022-08-10T14:12:16.990Z,3.60
2022-08-10T14:14:52.698Z,1.08
2022-08-10T14:17:22.809Z,1.05
2022-08-10T14:19:58.811Z,1.27
2022-08-10T14:22:34.238Z,1.55
2022-08-10T14:25:12.873Z,2.38
2022-08-10T14:28:02.946Z,1.48
2022-08-10T14:30:32.321Z,1.88
2022-08-10T14:33:04.659Z,1.60
2022-08-10T14:36:20.655Z,1.20
2022-08-10T14:38:25.415Z,2.55
2022-08-10T14:40:55.461Z,1.77
2022-08-10T14:43:28.479Z,1.30
2022-08-10T14:46:01.668Z,2.30
2022-08-10T14:48:31.895Z,1.35
2022-08-10T14:51:04.422Z,2.50
2022-08-10T14:53:36.929Z,1.00
2022-08-10T14:56:08.051Z,3.17
2022-08-10T14:58:39.072Z,1.00
2022-08-10T15:02:00.372Z,1.40
2022-08-10T15:04:18.984Z,1.42
2022-08-10T15:06:56.115Z,6.13
2022-08-10T15:09:25.714Z,1.23
2022-08-10T15:12:13.273Z,1.67
2022-08-10T15:14:44.870Z,3.47
2022-08-10T15:17:15.700Z,1.10
2022-08-10T15:20:03.658Z,4.22
2022-08-10T15:22:38.343Z,1.63
2022-08-10T15:25:17.821Z,1.08
2022-08-10T15:27:53.380Z,1.23
2022-08-10T15:30:29.550Z,1.23
2022-08-10T15:33:21.270Z,1.23
2022-08-10T15:36:24.178Z,0.88
2022-08-10T15:38:59.670Z,1.65
2022-08-10T15:41:58.748Z,1.23
2022-08-10T15:44:35.090Z,2.38
2022-08-10T15:47:06.268Z,1.55
2022-08-10T15:49:37.650Z,2.50
2022-08-10T15:52:38.682Z,1.85
2022-08-10T15:55:43.164Z,1.05
2022-08-10T15:58:04.918Z,0.80
2022-08-10T16:00:33.715Z,2.05
2022-08-10T16:03:04.387Z,2.17
2022-08-10T16:06:00.123Z,1.65
2022-08-10T16:08:26.765Z,3.03
2022-08-10T16:10:58.043Z,3.13
2022-08-10T16:13:50.223Z,1.80
2022-08-10T16:16:20.862Z,2.30
2022-08-10T16:18:50.565Z,1.33
2022-08-10T16:21:20.523Z,0.68
2022-08-10T16:24:14.546Z,1.45
2022-08-10T16:26:47.125Z,0.80
2022-08-10T16:29:17.992Z,1.00
2022-08-10T16:31:51.075Z,1.35
2022-08-10T16:34:20.702Z,1.10
2022-08-10T16:36:52.616Z,2.67
2022-08-10T16:39:57.265Z,3.28
2022-08-10T16:42:12.020Z,1.52
2022-08-10T16:44:42.519Z,2.60
2022-08-10T16:47:12.190Z,1.50
2022-08-10T16:49:41.702Z,1.35
2022-08-10T16:52:11.172Z,2.53
2022-08-10T16:54:41.603Z,2.58
2022-08-10T16:57:12.248Z,2.25
2022-08-10T16:59:41.509Z,1.20
2022-08-10T17:02:13.253Z,1.52
2022-08-10T17:04:42.573Z,1.70
2022-08-10T17:07:14.469Z,2.67
2022-08-10T17:09:47.374Z,2.83
2022-08-10T17:12:19.063Z,2.72
2022-08-10T17:14:58.028Z,2.55
2022-08-10T17:17:37.300Z,2.83
2022-08-10T17:20:30.355Z,2.60
2022-08-10T17:22:56.669Z,3.03
2022-08-10T17:25:46.052Z,2.22
2022-08-10T17:28:33.322Z,1.63
2022-08-10T17:31:24.234Z,2.72
2022-08-10T17:34:00.527Z,3.88
2022-08-10T17:36:30.750Z,1.67
2022-08-10T17:39:00.609Z,2.05
2022-08-10T17:41:30.927Z,3.45
2022-08-10T17:44:03.058Z,4.97
2022-08-10T17:46:33.591Z,2.25
2022-08-10T17:49:03.390Z,2.17
2022-08-10T17:51:31.825Z,3.88
2022-08-10T17:54:01.598Z,1.33
2022-08-10T17:56:33.247Z,1.85
2022-08-10T17:59:11.514Z,3.13
2022-08-10T18:01:58.875Z,2.10
2022-08-10T18:04:41.433Z,1.83
2022-08-10T18:07:11.606Z,2.92
2022-08-10T18:09:41.163Z,3.75
2022-08-10T18:12:18.228Z,3.28
2022-08-10T18:14:50.206Z,2.92
2022-08-10T18:17:20.381Z,2.88
2022-08-10T18:19:52.623Z,1.77
2022-08-10T18:22:21.931Z,1.73
2022-08-10T18:24:51.041Z,2.42
2022-08-10T18:27:20.381Z,3.47
2022-08-10T18:29:52.143Z,3.60
2022-08-10T18:32:22.089Z,2.47
2022-08-10T18:34:51.387Z,3.83
2022-08-10T18:37:21.737Z,2.37
2022-08-10T18:39:51.209Z,3.10
2022-08-10T18:42:23.341Z,3.07
2022-08-10T18:44:54.930Z,5.60
2022-08-10T18:47:30.634Z,3.53
2022-08-10T18:50:01.333Z,2.40
2022-08-10T18:52:31.604Z,3.40
2022-08-10T18:55:14.398Z,3.03
2022-08-10T18:58:06.487Z,4.30
2022-08-10T19:00:43.190Z,6.17
2022-08-10T19:03:17.099Z,4.47
2022-08-10T19:05:54.122Z,4.67
2022-08-10T19:08:30.458Z,4.33
2022-08-10T19:11:04.039Z,4.90
2022-08-10T19:13:35.589Z,5.60
2022-08-10T19:16:15.086Z,3.17
2022-08-10T19:18:50.658Z,3.27
2022-08-10T19:21:21.169Z,5.77
2022-08-10T19:23:55.950Z,3.27
2022-08-10T19:26:44.663Z,7.53
2022-08-10T19:30:10.142Z,4.90
2022-08-10T19:32:22.589Z,6.03
2022-08-10T19:35:00.351Z,4.97
2022-08-10T19:37:33.889Z,7.50
2022-08-10T19:40:12.226Z,7.30
2022-08-10T19:42:42.014Z,5.30
2022-08-10T19:45:55.842Z,4.70
2022-08-10T19:48:11.684Z,5.13
2022-08-10T19:50:42.716Z,6.13
2022-08-10T19:53:12.729Z,7.63
2022-08-10T19:55:47.078Z,5.97
2022-08-10T19:58:18.462Z,7.47
2022-08-10T20:00:51.482Z,7.57
2022-08-10T20:03:24.214Z,5.30
2022-08-10T20:06:18.913Z,5.10
2022-08-10T20:08:50.055Z,6.90
2022-08-10T20:11:44.070Z,8.40
2022-08-10T20:14:22.132Z,7.00
2022-08-10T20:16:52.036Z,7.40
2022-08-10T20:19:53.273Z,6.33
2022-08-10T20:22:17.429Z,5.40
2022-08-10T20:24:59.418Z,14.30
2022-08-10T20:27:58.906Z,9.53
2022-08-10T20:30:21.354Z,8.57
2022-08-10T20:32:51.789Z,7.37
2022-08-10T20:35:26.204Z,4.33
2022-08-10T20:38:04.445Z,7.27
2022-08-10T20:40:36.978Z,5.20
2022-08-10T20:43:11.133Z,8.27
2022-08-10T20:46:06.910Z,8.40
2022-08-10T20:48:36.655Z,11.13
2022-08-10T20:51:08.804Z,8.07
2022-08-10T20:53:43.588Z,12.03
2022-08-10T20:56:16.794Z,11.97
2022-08-10T20:58:56.051Z,8.07
2022-08-10T21:02:05.818Z,5.93
2022-08-10T21:04:21.746Z,8.90
2022-08-10T21:07:04.238Z,6.87
2022-08-10T21:09:39.534Z,7.23
2022-08-10T21:12:23.279Z,10.27
2022-08-10T21:14:55.675Z,9.20
2022-08-10T21:17:37.275Z,6.97
2022-08-10T21:20:11.311Z,10.00
2022-08-10T21:22:42.538Z,10.53
2022-08-10T21:25:15.772Z,9.70
2022-08-10T21:27:55.261Z,8.60
2022-08-10T21:30:27.190Z,6.40
2022-08-10T21:32:59.314Z,7.57
2022-08-10T21:35:36.835Z,9.40
2022-08-10T21:38:11.102Z,8.83
2022-08-10T21:41:17.948Z,14.63
2022-08-10T21:43:58.907Z,8.97
2022-08-10T21:46:55.324Z,10.60
2022-08-10T21:49:53.402Z,10.73
2022-08-10T21:52:41.805Z,5.73
2022-08-10T21:55:57.210Z,7.43
2022-08-10T21:58:47.414Z,5.93
2022-08-10T22:01:39.179Z,7.73
2022-08-10T22:04:26.238Z,11.33
2022-08-10T22:07:13.333Z,10.97
2022-08-10T22:10:04.178Z,8.13
2022-08-10T22:12:53.658Z,12.23
2022-08-10T22:16:03.666Z,12.80
2022-08-10T22:18:58.878Z,10.67
2022-08-10T22:21:54.848Z,13.33
2022-08-10T22:24:45.083Z,12.97
2022-08-10T22:27:47.399Z,15.67
2022-08-10T22:31:08.444Z,15.87
2022-08-10T22:34:00.923Z,10.23
2022-08-10T22:37:01.419Z,10.93
2022-08-10T22:40:10.186Z,16.73
2022-08-10T22:43:10.615Z,15.03
2022-08-10T22:46:03.645Z,9.90
2022-08-10T22:48:52.006Z,11.03
2022-08-10T22:51:22.877Z,15.77
2022-08-10T22:54:11.718Z,11.37
2022-08-10T22:57:18.309Z,12.90
2022-08-10T22:59:46.891Z,12.80
2022-08-10T23:02:23.522Z,11.93
2022-08-10T23:04:54.049Z,12.27
2022-08-10T23:07:24.699Z,11.37
2022-08-10T23:09:58.977Z,9.17
2022-08-10T23:12:35.873Z,13.90
2022-08-10T23:15:22.778Z,16.77
2022-08-10T23:18:11.319Z,15.83
2022-08-10T23:20:41.496Z,18.27
2022-08-10T23:23:11.498Z,17.90
2022-08-10T23:25:56.707Z,11.37
2022-08-10T23:28:58.100Z,15.90
2022-08-10T23:31:17.150Z,8.33
2022-08-10T23:34:08.202Z,13.20
2022-08-10T23:36:38.453Z,14.30
2022-08-10T23:39:26.892Z,10.00
2022-08-10T23:41:56.803Z,17.53
2022-08-10T23:44:26.622Z,17.30
2022-08-10T23:46:55.101Z,19.07
2022-08-10T23:49:26.126Z,15.73
2022-08-10T23:51:55.503Z,13.93
2022-08-10T23:54:25.784Z,15.17
2022-08-10T23:56:55.834Z,10.53
2022-08-10T23:59:25.428Z,14.30
